Brak ostrzeżeń pogodowych   -   Brak ostrzeżeń pogodowych

Raporty Pogodowe z Lotnisk

 

EPKK - Krakow/Balice, Poland
Odległość od stacji: Zd 81km
Aktualizacja: 02/06/2020 01:00
Bezchmurnie
Bezchmurnie
 Wiatr z varies
Wiatr: varies 4 km/h
Temperatura: 13°C
Punkt Rosy: 4°C
Wilgotność Względna: 55%
Ciśnienie Względne: 1016 hPa
Podsumowanie: Bezchmurnie
Widoczność: większa niż 10 km
2020/06/01 23:00 EPKK 012300Z VRB02KT CAVOK 13/04 Q1016
EPRZ - Rzeszow/Jasionka, Poland
Odległość od stacji: Ws 81km
Aktualizacja: 02/06/2020 01:00
Bezchmurnie
Bezchmurnie
 Wiatr z Zd
Wiatr: Zd 7 km/h
Temperatura: 7°C
Temperatura Odczuwalna: 6°C
Punkt Rosy: 3°C
Wilgotność Względna: 76%
Ciśnienie Względne: 1015 hPa
Podsumowanie: Bezchmurnie
Widoczność: większa niż 10 km
2020/06/01 23:00 EPRZ 012300Z 28004KT CAVOK 07/03 Q1015
 
EPKT - Katowice/Pyrzowice, Poland
Odległość od stacji: ZdPnZd 141km
Aktualizacja: 02/06/2020 01:00
Bezchmurnie
Bezchmurnie
 Wiatr z Pn
Wiatr: Pn 4 km/h
Temperatura: 9°C
Punkt Rosy: 5°C
Wilgotność Względna: 76%
Ciśnienie Względne: 1016 hPa
Podsumowanie: Bezchmurnie
Widoczność: większa niż 10 km
2020/06/01 23:00 EPKT 012300Z 35002KT CAVOK 09/05 Q1016
EPWA - Warsaw/Okecie, Poland
Odległość od stacji: Pn 240km
Aktualizacja: 02/06/2020 01:00
Bezchmurnie
Bezchmurnie
 Wiatr z varies
Wiatr: varies 2 km/h
Temperatura: 11°C
Punkt Rosy: 9°C
Wilgotność Względna: 88%
Ciśnienie Względne: 1016 hPa
Podsumowanie: Bezchmurnie
Widoczność: większa niż 10 km
2020/06/01 23:00 EPWA 012300Z VRB01KT CAVOK 11/09 Q1016 NOSIG
 
EPLL - Lodz/Lublinek, Poland
Odległość od stacji: PnPnZd 218km
Aktualizacja: 02/06/2020 01:00
Bezchmurnie
Bezchmurnie
 Wiatr z PnZd
Wiatr: PnZd 7 km/h
Temperatura: 12°C
Punkt Rosy: 5°C
Wilgotność Względna: 63%
Ciśnienie Względne: 1017 hPa
Podsumowanie: Bezchmurnie
Widoczność: większa niż 10 km
2020/06/01 23:00 EPLL 012300Z 31004KT CAVOK 12/05 Q1017
EPWR - Wroclaw/Strachowice, Poland
Odległość od stacji: ZdPnZd 311km
Aktualizacja: 02/06/2020 01:00
Bezchmurnie
Bezchmurnie
 Wiatr z ZdPnZd
Wiatr: ZdPnZd 11 km/h
Temperatura: 9°C
Temperatura Odczuwalna: 7°C
Punkt Rosy: 6°C
Wilgotność Względna: 82%
Ciśnienie Względne: 1019 hPa
Podsumowanie: Bezchmurnie
Widoczność: większa niż 10 km
2020/06/01 23:00 EPWR 012300Z 30006KT CAVOK 09/06 Q1019
 
EPGD - Gdansk/Rebiechowo, Poland
Odległość od stacji: PnZd 553km
Aktualizacja: 02/06/2020 01:00
Przeważnie pochmurno
Przeważnie pochmurno
 Wiatr z Pn
Wiatr: Pn 15 km/h
Temperatura: 12°C
Punkt Rosy: 8°C
Wilgotność Względna: 77%
Ciśnienie Względne: 1020 hPa
Chmury: Przeważnie pochmurno
Widoczność: 10 km
Szczegóły chmur: Przeważnie pochmurno 1463 m
2020/06/01 23:00 EPGD 012300Z 01008KT 340V050 9999 BKN048 12/08 Q1020
EPSC - Szczecin/Goleniow, Poland
Odległość od stacji: ZdPnZd 635km
Aktualizacja: 02/06/2020 01:00
Bezchmurnie
Bezchmurnie
 Wiatr z PnZd
Wiatr: PnZd 7 km/h
Temperatura: 10°C
Temperatura Odczuwalna: 9°C
Punkt Rosy: 7°C
Wilgotność Względna: 82%
Ciśnienie Względne: 1022 hPa
Podsumowanie: Bezchmurnie
Widoczność: większa niż 10 km
2020/06/01 23:00 EPSC 012300Z 32004KT CAVOK 10/07 Q1022